首页
METAR-TAF:

METAR-TAF

机场 :

平壤順安國際機場

平壤, 朝鲜民主主义人民共和国

纬度: 39-02N, 经度: 125-47E, 海拔: 36米

METAR: 丢失

时间: 12:58 (04:28 UTC)

预报

该预报发布于7小时和8分钟前的21:20 UTC
预报有效从18日的 00点(UTC)到 18日的 24点(UTC)
风速6节,风向西转西南
能见度10公里或以上
多云层高于2000英尺
成为
从 18日的 10点(UTC)到 18日的 12点(UTC)
风速6节,风向南转南东

TAF: ZKPY 172120Z 1800/1824 25003MPS 9999 BKN020 BECMG 1810/1812 16003MPS TX11/1807Z TN02/1821Z

超过4000个机场的气象观测和天气预报(METAR&TAF报告)。

可查询的气象台以黄色和红色小点在地图上表示。

将鼠标移到小点上方,可查看气象台名称。

然后点击查看天气观测和预报。

如需切换地图:点击带黑十字的绿色按钮放大地图;点击带横线的绿色按钮缩小地图;或者点击绿色箭头查看邻近地区的地图。


METAR-TAF: